sensor_id;sensor_type;location;lat;lon;timestamp;temperature;humidity
15296;DHT22;7749;49.964;7.890;2022-12-07T00:01:34;4.30;99.90
15296;DHT22;7749;49.964;7.890;2022-12-07T00:04:03;4.30;99.90
15296;DHT22;7749;49.964;7.890;2022-12-07T00:06:37;4.30;99.90
15296;DHT22;7749;49.964;7.890;2022-12-07T00:09:06;4.40;99.90
15296;DHT22;7749;49.964;7.890;2022-12-07T00:11:34;4.30;99.90
15296;DHT22;7749;49.964;7.890;2022-12-07T00:14:05;4.30;99.90
15296;DHT22;7749;49.964;7.890;2022-12-07T00:16:34;4.30;99.90
15296;DHT22;7749;49.964;7.890;2022-12-07T00:19:03;4.30;99.90
15296;DHT22;7749;49.964;7.890;2022-12-07T00:21:33;4.30;99.90
15296;DHT22;7749;49.964;7.890;2022-12-07T00:24:02;4.30;99.90
15296;DHT22;7749;49.964;7.890;2022-12-07T00:26:35;4.30;99.90
15296;DHT22;7749;49.964;7.890;2022-12-07T00:29:06;4.30;99.90
15296;DHT22;7749;49.964;7.890;2022-12-07T00:31:36;4.30;99.90
15296;DHT22;7749;49.964;7.890;2022-12-07T00:34:09;4.30;99.90
15296;DHT22;7749;49.964;7.890;2022-12-07T00:36:39;4.30;99.90
15296;DHT22;7749;49.964;7.890;2022-12-07T00:39:06;4.30;99.90
15296;DHT22;7749;49.964;7.890;2022-12-07T00:41:34;4.30;99.90
15296;DHT22;7749;49.964;7.890;2022-12-07T00:44:02;4.20;99.90
15296;DHT22;7749;49.964;7.890;2022-12-07T00:46:30;4.20;99.90
15296;DHT22;7749;49.964;7.890;2022-12-07T00:48:57;4.20;99.90
15296;DHT22;7749;49.964;7.890;2022-12-07T00:51:25;4.20;99.90
15296;DHT22;7749;49.964;7.890;2022-12-07T00:53:53;4.20;99.90
15296;DHT22;7749;49.964;7.890;2022-12-07T00:56:24;4.20;99.90
15296;DHT22;7749;49.964;7.890;2022-12-07T00:59:03;4.20;99.90
15296;DHT22;7749;49.964;7.890;2022-12-07T01:01:34;4.20;99.90
15296;DHT22;7749;49.964;7.890;2022-12-07T01:04:02;4.20;99.90
15296;DHT22;7749;49.964;7.890;2022-12-07T01:06:30;4.20;99.90
15296;DHT22;7749;49.964;7.890;2022-12-07T01:08:58;4.10;99.90
15296;DHT22;7749;49.964;7.890;2022-12-07T01:11:27;4.10;99.90
15296;DHT22;7749;49.964;7.890;2022-12-07T01:13:57;4.20;99.90
15296;DHT22;7749;49.964;7.890;2022-12-07T01:16:26;4.10;99.90
15296;DHT22;7749;49.964;7.890;2022-12-07T01:18:56;4.10;99.90
15296;DHT22;7749;49.964;7.890;2022-12-07T01:21:29;4.20;99.90
15296;DHT22;7749;49.964;7.890;2022-12-07T01:23:58;4.10;99.90
15296;DHT22;7749;49.964;7.890;2022-12-07T01:26:26;4.10;99.90
15296;DHT22;7749;49.964;7.890;2022-12-07T01:28:54;4.20;99.90
15296;DHT22;7749;49.964;7.890;2022-12-07T01:31:25;4.10;99.90
15296;DHT22;7749;49.964;7.890;2022-12-07T01:33:55;4.10;99.90
15296;DHT22;7749;49.964;7.890;2022-12-07T01:36:29;4.10;99.90
15296;DHT22;7749;49.964;7.890;2022-12-07T01:39:00;4.20;99.90
15296;DHT22;7749;49.964;7.890;2022-12-07T01:41:31;4.20;99.90
15296;DHT22;7749;49.964;7.890;2022-12-07T01:44:15;4.20;99.90
15296;DHT22;7749;49.964;7.890;2022-12-07T01:49:34;4.30;99.90
15296;DHT22;7749;49.964;7.890;2022-12-07T01:52:23;4.30;99.90
15296;DHT22;7749;49.964;7.890;2022-12-07T01:54:55;4.40;99.90
15296;DHT22;7749;49.964;7.890;2022-12-07T01:57:24;4.30;99.90
15296;DHT22;7749;49.964;7.890;2022-12-07T01:59:53;4.30;99.90
15296;DHT22;7749;49.964;7.890;2022-12-07T02:02:26;4.20;99.90
15296;DHT22;7749;49.964;7.890;2022-12-07T02:04:56;4.20;99.90
15296;DHT22;7749;49.964;7.890;2022-12-07T02:07:25;4.20;99.90
15296;DHT22;7749;49.964;7.890;2022-12-07T02:09:54;4.30;99.90
15296;DHT22;7749;49.964;7.890;2022-12-07T02:12:23;4.20;99.90
15296;DHT22;7749;49.964;7.890;2022-12-07T02:14:54;4.30;99.90
15296;DHT22;7749;49.964;7.890;2022-12-07T02:17:32;4.40;99.90
15296;DHT22;7749;49.964;7.890;2022-12-07T02:31:50;4.40;99.90
15296;DHT22;7749;49.964;7.890;2022-12-07T02:34:34;4.40;99.90
15296;DHT22;7749;49.964;7.890;2022-12-07T02:37:12;4.40;99.90
15296;DHT22;7749;49.964;7.890;2022-12-07T02:42:49;4.50;99.90
15296;DHT22;7749;49.964;7.890;2022-12-07T02:45:21;4.60;99.90
15296;DHT22;7749;49.964;7.890;2022-12-07T02:47:51;4.60;99.90
15296;DHT22;7749;49.964;7.890;2022-12-07T02:50:21;4.60;99.90
15296;DHT22;7749;49.964;7.890;2022-12-07T02:52:49;4.50;99.90
15296;DHT22;7749;49.964;7.890;2022-12-07T02:55:21;4.50;99.90
15296;DHT22;7749;49.964;7.890;2022-12-07T02:58:05;4.50;99.90
15296;DHT22;7749;49.964;7.890;2022-12-07T03:00:46;4.50;99.90
15296;DHT22;7749;49.964;7.890;2022-12-07T03:03:18;4.50;99.90
15296;DHT22;7749;49.964;7.890;2022-12-07T03:11:13;4.50;99.90
15296;DHT22;7749;49.964;7.890;2022-12-07T03:14:01;4.50;99.90
15296;DHT22;7749;49.964;7.890;2022-12-07T03:16:37;4.50;99.90
15296;DHT22;7749;49.964;7.890;2022-12-07T03:19:13;4.50;99.90
15296;DHT22;7749;49.964;7.890;2022-12-07T03:21:44;4.50;99.90
15296;DHT22;7749;49.964;7.890;2022-12-07T03:24:17;4.60;99.90
15296;DHT22;7749;49.964;7.890;2022-12-07T03:26:52;4.50;99.90
15296;DHT22;7749;49.964;7.890;2022-12-07T03:29:26;4.50;99.90
15296;DHT22;7749;49.964;7.890;2022-12-07T03:32:02;4.60;99.90
15296;DHT22;7749;49.964;7.890;2022-12-07T03:34:47;4.60;99.90
15296;DHT22;7749;49.964;7.890;2022-12-07T03:37:20;4.70;99.90
15296;DHT22;7749;49.964;7.890;2022-12-07T03:40:00;4.70;99.90
15296;DHT22;7749;49.964;7.890;2022-12-07T03:42:31;4.80;99.90
15296;DHT22;7749;49.964;7.890;2022-12-07T03:45:03;4.90;99.90
15296;DHT22;7749;49.964;7.890;2022-12-07T03:47:37;4.90;99.90
15296;DHT22;7749;49.964;7.890;2022-12-07T03:53:19;5.00;99.90
15296;DHT22;7749;49.964;7.890;2022-12-07T03:55:48;5.00;99.90
15296;DHT22;7749;49.964;7.890;2022-12-07T03:58:19;4.90;99.90
15296;DHT22;7749;49.964;7.890;2022-12-07T04:00:49;5.00;99.90
15296;DHT22;7749;49.964;7.890;2022-12-07T04:03:17;5.00;99.90
15296;DHT22;7749;49.964;7.890;2022-12-07T04:05:45;5.00;99.90
15296;DHT22;7749;49.964;7.890;2022-12-07T04:08:13;5.00;99.90
15296;DHT22;7749;49.964;7.890;2022-12-07T04:10:41;5.10;99.90
15296;DHT22;7749;49.964;7.890;2022-12-07T04:13:08;5.10;99.90
15296;DHT22;7749;49.964;7.890;2022-12-07T04:15:36;5.10;99.90
15296;DHT22;7749;49.964;7.890;2022-12-07T04:18:04;5.10;99.90
15296;DHT22;7749;49.964;7.890;2022-12-07T04:20:31;5.00;99.90
15296;DHT22;7749;49.964;7.890;2022-12-07T04:22:59;5.10;99.90
15296;DHT22;7749;49.964;7.890;2022-12-07T04:25:27;5.00;99.90
15296;DHT22;7749;49.964;7.890;2022-12-07T04:27:54;5.00;99.90
15296;DHT22;7749;49.964;7.890;2022-12-07T04:30:22;5.00;99.90
15296;DHT22;7749;49.964;7.890;2022-12-07T04:32:50;5.00;99.90
15296;DHT22;7749;49.964;7.890;2022-12-07T04:35:17;5.00;99.90
15296;DHT22;7749;49.964;7.890;2022-12-07T04:37:45;5.00;99.90
15296;DHT22;7749;49.964;7.890;2022-12-07T04:40:13;5.10;99.90
15296;DHT22;7749;49.964;7.890;2022-12-07T04:42:41;5.10;99.90
15296;DHT22;7749;49.964;7.890;2022-12-07T04:45:09;5.20;99.90
15296;DHT22;7749;49.964;7.890;2022-12-07T04:47:37;5.20;99.90
15296;DHT22;7749;49.964;7.890;2022-12-07T04:50:05;5.20;99.90
15296;DHT22;7749;49.964;7.890;2022-12-07T04:52:33;5.20;99.90
15296;DHT22;7749;49.964;7.890;2022-12-07T04:55:01;5.20;99.90
15296;DHT22;7749;49.964;7.890;2022-12-07T04:57:28;5.20;99.90
15296;DHT22;7749;49.964;7.890;2022-12-07T04:59:56;5.20;99.90
15296;DHT22;7749;49.964;7.890;2022-12-07T05:02:24;5.20;99.90
15296;DHT22;7749;49.964;7.890;2022-12-07T05:04:51;5.20;99.90
15296;DHT22;7749;49.964;7.890;2022-12-07T05:07:19;5.20;99.90
15296;DHT22;7749;49.964;7.890;2022-12-07T05:09:47;5.20;99.90
15296;DHT22;7749;49.964;7.890;2022-12-07T05:12:14;5.20;99.90
15296;DHT22;7749;49.964;7.890;2022-12-07T05:14:42;5.20;99.90
15296;DHT22;7749;49.964;7.890;2022-12-07T05:17:10;5.20;99.90
15296;DHT22;7749;49.964;7.890;2022-12-07T05:19:38;5.20;99.90
15296;DHT22;7749;49.964;7.890;2022-12-07T05:22:06;5.10;99.90
15296;DHT22;7749;49.964;7.890;2022-12-07T05:24:34;5.20;99.90
15296;DHT22;7749;49.964;7.890;2022-12-07T05:27:01;5.20;99.90
15296;DHT22;7749;49.964;7.890;2022-12-07T05:29:29;5.10;99.90
15296;DHT22;7749;49.964;7.890;2022-12-07T05:31:57;5.10;99.90
15296;DHT22;7749;49.964;7.890;2022-12-07T05:34:24;5.20;99.90
15296;DHT22;7749;49.964;7.890;2022-12-07T05:36:52;5.20;99.90
15296;DHT22;7749;49.964;7.890;2022-12-07T05:39:20;5.20;99.90
15296;DHT22;7749;49.964;7.890;2022-12-07T05:41:47;5.20;99.90
15296;DHT22;7749;49.964;7.890;2022-12-07T05:44:34;5.20;99.90
15296;DHT22;7749;49.964;7.890;2022-12-07T05:47:02;5.20;99.90
15296;DHT22;7749;49.964;7.890;2022-12-07T05:49:29;5.20;99.90
15296;DHT22;7749;49.964;7.890;2022-12-07T05:51:57;5.30;99.90
15296;DHT22;7749;49.964;7.890;2022-12-07T05:54:25;5.30;99.90
15296;DHT22;7749;49.964;7.890;2022-12-07T05:56:53;5.40;99.90
15296;DHT22;7749;49.964;7.890;2022-12-07T05:59:21;5.30;99.90
15296;DHT22;7749;49.964;7.890;2022-12-07T06:04:24;5.30;99.90
15296;DHT22;7749;49.964;7.890;2022-12-07T06:06:53;5.30;99.90
15296;DHT22;7749;49.964;7.890;2022-12-07T06:09:22;5.30;99.90
15296;DHT22;7749;49.964;7.890;2022-12-07T06:11:51;5.30;99.90
15296;DHT22;7749;49.964;7.890;2022-12-07T06:14:38;5.30;99.90
15296;DHT22;7749;49.964;7.890;2022-12-07T06:17:06;5.30;99.90
15296;DHT22;7749;49.964;7.890;2022-12-07T06:19:40;5.20;99.90
15296;DHT22;7749;49.964;7.890;2022-12-07T06:34:21;4.80;99.90
15296;DHT22;7749;49.964;7.890;2022-12-07T08:33:32;5.80;99.90
15296;DHT22;7749;49.964;7.890;2022-12-07T08:36:02;5.90;99.90
15296;DHT22;7749;49.964;7.890;2022-12-07T08:38:30;5.90;99.90
15296;DHT22;7749;49.964;7.890;2022-12-07T08:40:59;6.00;99.90
15296;DHT22;7749;49.964;7.890;2022-12-07T08:43:27;6.00;99.90
15296;DHT22;7749;49.964;7.890;2022-12-07T08:48:38;6.20;99.90
15296;DHT22;7749;49.964;7.890;2022-12-07T08:51:06;6.30;99.90
15296;DHT22;7749;49.964;7.890;2022-12-07T08:53:34;6.30;99.90
15296;DHT22;7749;49.964;7.890;2022-12-07T08:56:03;6.30;99.90
15296;DHT22;7749;49.964;7.890;2022-12-07T08:58:33;6.20;99.90
15296;DHT22;7749;49.964;7.890;2022-12-07T09:01:01;6.40;99.90
15296;DHT22;7749;49.964;7.890;2022-12-07T09:03:29;6.40;98.40
15296;DHT22;7749;49.964;7.890;2022-12-07T09:05:57;6.40;98.40
15296;DHT22;7749;49.964;7.890;2022-12-07T09:08:33;6.40;91.30
15296;DHT22;7749;49.964;7.890;2022-12-07T09:11:02;6.40;66.60
15296;DHT22;7749;49.964;7.890;2022-12-07T09:13:30;6.60;62.30
15296;DHT22;7749;49.964;7.890;2022-12-07T09:15:58;6.50;38.70
15296;DHT22;7749;49.964;7.890;2022-12-07T09:18:26;6.40;71.60
15296;DHT22;7749;49.964;7.890;2022-12-07T09:20:53;6.40;64.10
15296;DHT22;7749;49.964;7.890;2022-12-07T09:23:21;6.40;87.40
15296;DHT22;7749;49.964;7.890;2022-12-07T09:25:49;6.30;85.10
15296;DHT22;7749;49.964;7.890;2022-12-07T09:28:16;6.30;93.90
15296;DHT22;7749;49.964;7.890;2022-12-07T09:30:48;6.40;92.30
15296;DHT22;7749;49.964;7.890;2022-12-07T09:33:36;6.40;94.10
15296;DHT22;7749;49.964;7.890;2022-12-07T09:36:04;6.50;88.40
15296;DHT22;7749;49.964;7.890;2022-12-07T09:38:32;6.60;74.90
15296;DHT22;7749;49.964;7.890;2022-12-07T09:41:05;6.70;37.20
15296;DHT22;7749;49.964;7.890;2022-12-07T09:43:35;6.80;40.70
15296;DHT22;7749;49.964;7.890;2022-12-07T09:46:04;6.80;39.40
15296;DHT22;7749;49.964;7.890;2022-12-07T09:48:36;7.00;61.90
15296;DHT22;7749;49.964;7.890;2022-12-07T09:53:52;7.90;20.40
15296;DHT22;7749;49.964;7.890;2022-12-07T09:56:22;8.30;12.40
15296;DHT22;7749;49.964;7.890;2022-12-07T09:58:55;8.70;1.00
15296;DHT22;7749;49.964;7.890;2022-12-07T10:01:27;8.70;1.00
15296;DHT22;7749;49.964;7.890;2022-12-07T10:06:39;8.70;1.00
15296;DHT22;7749;49.964;7.890;2022-12-07T10:09:11;8.40;1.00
15296;DHT22;7749;49.964;7.890;2022-12-07T10:12:05;8.40;1.00
15296;DHT22;7749;49.964;7.890;2022-12-07T10:14:53;8.50;1.00
15296;DHT22;7749;49.964;7.890;2022-12-07T10:17:41;8.60;1.00
15296;DHT22;7749;49.964;7.890;2022-12-07T10:20:24;8.70;1.00
15296;DHT22;7749;49.964;7.890;2022-12-07T10:23:05;8.70;1.00
15296;DHT22;7749;49.964;7.890;2022-12-07T10:25:37;8.80;1.00
15296;DHT22;7749;49.964;7.890;2022-12-07T10:30:57;10.50;1.00
15296;DHT22;7749;49.964;7.890;2022-12-07T10:33:38;12.10;1.00
15296;DHT22;7749;49.964;7.890;2022-12-07T10:39:03;15.90;1.00
15296;DHT22;7749;49.964;7.890;2022-12-07T10:41:31;17.10;1.00
15296;DHT22;7749;49.964;7.890;2022-12-07T10:43:58;17.40;1.00
15296;DHT22;7749;49.964;7.890;2022-12-07T10:49:31;17.70;99.90
15296;DHT22;7749;49.964;7.890;2022-12-07T10:55:11;19.40;1.00
15296;DHT22;7749;49.964;7.890;2022-12-07T10:57:58;19.70;1.00
15296;DHT22;7749;49.964;7.890;2022-12-07T11:00:37;18.30;1.00
15296;DHT22;7749;49.964;7.890;2022-12-07T11:11:42;14.90;1.00
15296;DHT22;7749;49.964;7.890;2022-12-07T11:16:56;12.40;1.00
15296;DHT22;7749;49.964;7.890;2022-12-07T11:19:39;12.50;1.00
15296;DHT22;7749;49.964;7.890;2022-12-07T11:22:40;14.60;1.00
15296;DHT22;7749;49.964;7.890;2022-12-07T11:31:12;13.50;1.00
15296;DHT22;7749;49.964;7.890;2022-12-07T11:34:00;11.70;1.00
15296;DHT22;7749;49.964;7.890;2022-12-07T11:41:52;8.70;99.90
15296;DHT22;7749;49.964;7.890;2022-12-07T11:50:01;8.80;1.00
15296;DHT22;7749;49.964;7.890;2022-12-07T11:52:42;9.70;99.90
15296;DHT22;7749;49.964;7.890;2022-12-07T11:55:22;10.40;1.00
15296;DHT22;7749;49.964;7.890;2022-12-07T11:57:58;10.70;1.00
15296;DHT22;7749;49.964;7.890;2022-12-07T12:00:29;10.60;99.90
15296;DHT22;7749;49.964;7.890;2022-12-07T12:03:01;10.00;1.00
15296;DHT22;7749;49.964;7.890;2022-12-07T12:05:32;9.20;1.00
15296;DHT22;7749;49.964;7.890;2022-12-07T12:11:39;8.80;1.00
15296;DHT22;7749;49.964;7.890;2022-12-07T12:17:12;10.10;1.00
15296;DHT22;7749;49.964;7.890;2022-12-07T12:22:38;14.40;1.00
15296;DHT22;7749;49.964;7.890;2022-12-07T12:25:28;17.10;1.00
15296;DHT22;7749;49.964;7.890;2022-12-07T12:27:59;19.60;1.00
15296;DHT22;7749;49.964;7.890;2022-12-07T12:30:34;20.20;1.00
15296;DHT22;7749;49.964;7.890;2022-12-07T12:35:45;16.50;1.00
15296;DHT22;7749;49.964;7.890;2022-12-07T12:38:49;14.90;1.00
15296;DHT22;7749;49.964;7.890;2022-12-07T12:47:04;13.00;1.00
15296;DHT22;7749;49.964;7.890;2022-12-07T12:53:19;10.30;1.00
15296;DHT22;7749;49.964;7.890;2022-12-07T12:56:10;9.20;99.90
15296;DHT22;7749;49.964;7.890;2022-12-07T12:58:44;8.50;1.00
15296;DHT22;7749;49.964;7.890;2022-12-07T13:01:41;9.00;1.00
15296;DHT22;7749;49.964;7.890;2022-12-07T13:04:28;9.80;99.90
15296;DHT22;7749;49.964;7.890;2022-12-07T13:06:56;9.60;87.70
15296;DHT22;7749;49.964;7.890;2022-12-07T13:09:27;10.00;99.90
15296;DHT22;7749;49.964;7.890;2022-12-07T13:12:00;11.30;1.00
15296;DHT22;7749;49.964;7.890;2022-12-07T13:20:00;10.60;14.30
15296;DHT22;7749;49.964;7.890;2022-12-07T13:25:30;10.30;1.00
15296;DHT22;7749;49.964;7.890;2022-12-07T13:28:17;10.20;1.00
15296;DHT22;7749;49.964;7.890;2022-12-07T13:31:00;9.70;99.90
15296;DHT22;7749;49.964;7.890;2022-12-07T13:33:29;9.50;1.00
15296;DHT22;7749;49.964;7.890;2022-12-07T13:35:57;9.20;1.00
15296;DHT22;7749;49.964;7.890;2022-12-07T13:38:30;9.20;99.90
15296;DHT22;7749;49.964;7.890;2022-12-07T13:41:04;9.00;37.60
15296;DHT22;7749;49.964;7.890;2022-12-07T13:43:46;9.00;99.90
15296;DHT22;7749;49.964;7.890;2022-12-07T13:46:15;8.70;1.00
15296;DHT22;7749;49.964;7.890;2022-12-07T13:51:26;9.40;1.00
15296;DHT22;7749;49.964;7.890;2022-12-07T13:54:00;9.20;99.90
15296;DHT22;7749;49.964;7.890;2022-12-07T13:56:33;9.10;1.00
15296;DHT22;7749;49.964;7.890;2022-12-07T13:59:02;9.00;1.00
15296;DHT22;7749;49.964;7.890;2022-12-07T14:01:32;8.80;99.90
15296;DHT22;7749;49.964;7.890;2022-12-07T14:07:00;8.50;1.00
15296;DHT22;7749;49.964;7.890;2022-12-07T14:09:29;8.50;1.00
15296;DHT22;7749;49.964;7.890;2022-12-07T14:11:58;8.20;75.80
15296;DHT22;7749;49.964;7.890;2022-12-07T14:14:29;7.90;99.90
15296;DHT22;7749;49.964;7.890;2022-12-07T14:19:45;7.70;99.90
15296;DHT22;7749;49.964;7.890;2022-12-07T14:22:35;7.60;1.00
15296;DHT22;7749;49.964;7.890;2022-12-07T14:25:22;7.50;1.00
15296;DHT22;7749;49.964;7.890;2022-12-07T14:28:00;7.50;1.00
15296;DHT22;7749;49.964;7.890;2022-12-07T14:30:30;7.40;1.00
15296;DHT22;7749;49.964;7.890;2022-12-07T14:33:04;7.50;1.00
15296;DHT22;7749;49.964;7.890;2022-12-07T14:38:34;7.60;1.00
15296;DHT22;7749;49.964;7.890;2022-12-07T14:41:02;7.50;1.00
15296;DHT22;7749;49.964;7.890;2022-12-07T14:43:50;7.40;1.00
15296;DHT22;7749;49.964;7.890;2022-12-07T14:46:37;7.50;1.00
15296;DHT22;7749;49.964;7.890;2022-12-07T14:49:05;7.50;1.00
15296;DHT22;7749;49.964;7.890;2022-12-07T14:51:53;7.60;1.00
15296;DHT22;7749;49.964;7.890;2022-12-07T14:54:41;7.60;1.00
15296;DHT22;7749;49.964;7.890;2022-12-07T14:57:09;7.50;1.00
15296;DHT22;7749;49.964;7.890;2022-12-07T14:59:39;7.40;1.00
15296;DHT22;7749;49.964;7.890;2022-12-07T15:02:13;7.30;1.00
15296;DHT22;7749;49.964;7.890;2022-12-07T15:04:41;7.30;1.00
15296;DHT22;7749;49.964;7.890;2022-12-07T15:07:15;7.20;1.00
15296;DHT22;7749;49.964;7.890;2022-12-07T15:09:46;7.10;1.00
15296;DHT22;7749;49.964;7.890;2022-12-07T15:12:14;7.10;1.20
15296;DHT22;7749;49.964;7.890;2022-12-07T15:14:42;7.00;26.60
15296;DHT22;7749;49.964;7.890;2022-12-07T15:17:11;6.90;10.80
15296;DHT22;7749;49.964;7.890;2022-12-07T15:19:56;6.90;20.90
15296;DHT22;7749;49.964;7.890;2022-12-07T15:22:24;6.90;48.30
15296;DHT22;7749;49.964;7.890;2022-12-07T15:24:51;6.80;34.10
15296;DHT22;7749;49.964;7.890;2022-12-07T15:30:02;6.70;32.40
15296;DHT22;7749;49.964;7.890;2022-12-07T15:32:30;6.70;1.00
15296;DHT22;7749;49.964;7.890;2022-12-07T15:34:57;6.60;1.00
15296;DHT22;7749;49.964;7.890;2022-12-07T15:37:25;6.50;1.00
15296;DHT22;7749;49.964;7.890;2022-12-07T15:39:53;6.50;1.00
15296;DHT22;7749;49.964;7.890;2022-12-07T15:42:20;6.30;15.50
15296;DHT22;7749;49.964;7.890;2022-12-07T15:44:48;6.20;24.10
15296;DHT22;7749;49.964;7.890;2022-12-07T15:47:37;6.10;48.70
15296;DHT22;7749;49.964;7.890;2022-12-07T15:50:25;6.00;57.30
15296;DHT22;7749;49.964;7.890;2022-12-07T15:52:53;6.00;73.10
15296;DHT22;7749;49.964;7.890;2022-12-07T15:55:21;5.90;91.00
15296;DHT22;7749;49.964;7.890;2022-12-07T15:57:48;5.90;90.00
15296;DHT22;7749;49.964;7.890;2022-12-07T16:00:17;5.80;90.20
15296;DHT22;7749;49.964;7.890;2022-12-07T16:02:45;5.80;99.90
15296;DHT22;7749;49.964;7.890;2022-12-07T16:05:12;5.70;99.90
15296;DHT22;7749;49.964;7.890;2022-12-07T16:07:43;5.70;99.90
15296;DHT22;7749;49.964;7.890;2022-12-07T16:10:11;5.70;99.90
15296;DHT22;7749;49.964;7.890;2022-12-07T16:12:38;5.70;99.90
15296;DHT22;7749;49.964;7.890;2022-12-07T16:15:06;5.70;99.90
15296;DHT22;7749;49.964;7.890;2022-12-07T16:17:34;5.70;99.90
15296;DHT22;7749;49.964;7.890;2022-12-07T16:20:03;5.80;99.90
15296;DHT22;7749;49.964;7.890;2022-12-07T16:22:31;5.80;99.90
15296;DHT22;7749;49.964;7.890;2022-12-07T16:24:59;5.80;99.90
15296;DHT22;7749;49.964;7.890;2022-12-07T16:27:27;5.70;99.90
15296;DHT22;7749;49.964;7.890;2022-12-07T16:29:55;5.70;99.90
15296;DHT22;7749;49.964;7.890;2022-12-07T16:32:23;5.70;99.90
15296;DHT22;7749;49.964;7.890;2022-12-07T16:34:50;5.70;99.90
15296;DHT22;7749;49.964;7.890;2022-12-07T16:37:18;5.60;99.90
15296;DHT22;7749;49.964;7.890;2022-12-07T16:39:45;5.60;99.90
15296;DHT22;7749;49.964;7.890;2022-12-07T16:42:13;5.50;99.90
15296;DHT22;7749;49.964;7.890;2022-12-07T16:44:41;5.50;99.90
15296;DHT22;7749;49.964;7.890;2022-12-07T16:47:08;5.50;99.90
15296;DHT22;7749;49.964;7.890;2022-12-07T16:49:36;5.50;99.90
15296;DHT22;7749;49.964;7.890;2022-12-07T16:52:04;5.40;99.90
15296;DHT22;7749;49.964;7.890;2022-12-07T16:54:48;5.50;99.90
15296;DHT22;7749;49.964;7.890;2022-12-07T16:57:17;5.40;99.90
15296;DHT22;7749;49.964;7.890;2022-12-07T16:59:51;5.40;99.90
15296;DHT22;7749;49.964;7.890;2022-12-07T17:02:19;5.40;99.90
15296;DHT22;7749;49.964;7.890;2022-12-07T17:04:47;5.30;99.90
15296;DHT22;7749;49.964;7.890;2022-12-07T17:07:14;5.30;99.90
15296;DHT22;7749;49.964;7.890;2022-12-07T17:09:42;5.20;99.90
15296;DHT22;7749;49.964;7.890;2022-12-07T17:12:10;5.20;99.90
15296;DHT22;7749;49.964;7.890;2022-12-07T17:14:37;5.10;99.90
15296;DHT22;7749;49.964;7.890;2022-12-07T17:17:23;5.20;99.90
15296;DHT22;7749;49.964;7.890;2022-12-07T17:19:51;5.10;99.90
15296;DHT22;7749;49.964;7.890;2022-12-07T17:22:18;5.10;99.90
15296;DHT22;7749;49.964;7.890;2022-12-07T17:24:46;5.20;99.90
15296;DHT22;7749;49.964;7.890;2022-12-07T17:27:14;5.20;99.90
15296;DHT22;7749;49.964;7.890;2022-12-07T17:29:41;5.20;99.90
15296;DHT22;7749;49.964;7.890;2022-12-07T17:32:09;5.30;99.90
15296;DHT22;7749;49.964;7.890;2022-12-07T17:34:36;5.30;99.90
15296;DHT22;7749;49.964;7.890;2022-12-07T17:37:04;5.30;99.90
15296;DHT22;7749;49.964;7.890;2022-12-07T17:39:32;5.30;99.90
15296;DHT22;7749;49.964;7.890;2022-12-07T17:42:00;5.30;99.90
15296;DHT22;7749;49.964;7.890;2022-12-07T17:44:46;5.40;99.90
15296;DHT22;7749;49.964;7.890;2022-12-07T17:47:14;5.40;99.90
15296;DHT22;7749;49.964;7.890;2022-12-07T17:49:43;5.40;99.90
15296;DHT22;7749;49.964;7.890;2022-12-07T17:52:13;5.40;99.90
15296;DHT22;7749;49.964;7.890;2022-12-07T17:55:00;5.50;99.90
15296;DHT22;7749;49.964;7.890;2022-12-07T17:57:29;5.50;99.90
15296;DHT22;7749;49.964;7.890;2022-12-07T17:59:57;5.60;99.90
15296;DHT22;7749;49.964;7.890;2022-12-07T18:02:24;5.60;99.90
15296;DHT22;7749;49.964;7.890;2022-12-07T18:04:52;5.70;99.90
15296;DHT22;7749;49.964;7.890;2022-12-07T18:07:20;5.70;99.90
15296;DHT22;7749;49.964;7.890;2022-12-07T18:09:47;5.80;99.90
15296;DHT22;7749;49.964;7.890;2022-12-07T18:12:15;5.70;99.90
15296;DHT22;7749;49.964;7.890;2022-12-07T18:14:43;5.70;99.90
15296;DHT22;7749;49.964;7.890;2022-12-07T18:17:11;5.80;99.90
15296;DHT22;7749;49.964;7.890;2022-12-07T18:19:38;5.80;99.90
15296;DHT22;7749;49.964;7.890;2022-12-07T18:22:06;5.80;99.90
15296;DHT22;7749;49.964;7.890;2022-12-07T18:24:34;5.80;99.90
15296;DHT22;7749;49.964;7.890;2022-12-07T18:27:05;5.90;99.90
15296;DHT22;7749;49.964;7.890;2022-12-07T18:29:33;5.90;99.90
15296;DHT22;7749;49.964;7.890;2022-12-07T18:32:01;5.90;99.90
15296;DHT22;7749;49.964;7.890;2022-12-07T18:34:28;5.90;99.90
15296;DHT22;7749;49.964;7.890;2022-12-07T18:36:57;5.90;99.90
15296;DHT22;7749;49.964;7.890;2022-12-07T18:39:25;5.90;99.90
15296;DHT22;7749;49.964;7.890;2022-12-07T18:42:00;5.80;99.90
15296;DHT22;7749;49.964;7.890;2022-12-07T18:44:28;5.80;99.90
15296;DHT22;7749;49.964;7.890;2022-12-07T18:46:56;5.80;99.90
15296;DHT22;7749;49.964;7.890;2022-12-07T18:49:24;5.80;99.90
15296;DHT22;7749;49.964;7.890;2022-12-07T18:51:51;5.70;99.90
15296;DHT22;7749;49.964;7.890;2022-12-07T18:54:19;5.80;99.90
15296;DHT22;7749;49.964;7.890;2022-12-07T18:56:47;5.70;99.90
15296;DHT22;7749;49.964;7.890;2022-12-07T18:59:14;5.70;99.90
15296;DHT22;7749;49.964;7.890;2022-12-07T19:02:01;5.70;99.90
15296;DHT22;7749;49.964;7.890;2022-12-07T19:04:29;5.80;99.90
15296;DHT22;7749;49.964;7.890;2022-12-07T19:06:56;5.70;99.90
15296;DHT22;7749;49.964;7.890;2022-12-07T19:09:24;5.80;99.90
15296;DHT22;7749;49.964;7.890;2022-12-07T19:11:52;5.70;99.90
15296;DHT22;7749;49.964;7.890;2022-12-07T19:16:50;5.70;99.90
15296;DHT22;7749;49.964;7.890;2022-12-07T19:19:20;5.70;99.90
15296;DHT22;7749;49.964;7.890;2022-12-07T19:21:49;5.70;99.90
15296;DHT22;7749;49.964;7.890;2022-12-07T19:24:17;5.70;99.90
15296;DHT22;7749;49.964;7.890;2022-12-07T19:26:50;5.70;99.90
15296;DHT22;7749;49.964;7.890;2022-12-07T19:29:19;5.80;99.90
15296;DHT22;7749;49.964;7.890;2022-12-07T19:31:46;5.70;99.90
15296;DHT22;7749;49.964;7.890;2022-12-07T19:34:15;5.60;99.90
15296;DHT22;7749;49.964;7.890;2022-12-07T19:36:44;5.70;99.90
15296;DHT22;7749;49.964;7.890;2022-12-07T19:39:13;5.70;99.90
15296;DHT22;7749;49.964;7.890;2022-12-07T19:41:43;5.70;99.90
15296;DHT22;7749;49.964;7.890;2022-12-07T19:44:12;5.70;99.90
15296;DHT22;7749;49.964;7.890;2022-12-07T19:46:41;5.70;99.90
15296;DHT22;7749;49.964;7.890;2022-12-07T19:49:09;5.70;99.90
15296;DHT22;7749;49.964;7.890;2022-12-07T19:51:37;5.70;99.90
15296;DHT22;7749;49.964;7.890;2022-12-07T19:54:04;5.70;99.90
15296;DHT22;7749;49.964;7.890;2022-12-07T19:56:32;5.70;99.90
15296;DHT22;7749;49.964;7.890;2022-12-07T19:59:01;5.70;99.90
15296;DHT22;7749;49.964;7.890;2022-12-07T20:01:29;5.60;99.90
15296;DHT22;7749;49.964;7.890;2022-12-07T20:03:57;5.60;99.90
15296;DHT22;7749;49.964;7.890;2022-12-07T20:06:25;5.60;99.90
15296;DHT22;7749;49.964;7.890;2022-12-07T20:08:54;5.50;99.90
15296;DHT22;7749;49.964;7.890;2022-12-07T20:11:22;5.50;99.90
15296;DHT22;7749;49.964;7.890;2022-12-07T20:14:10;5.40;99.90
15296;DHT22;7749;49.964;7.890;2022-12-07T20:16:38;5.30;99.90
15296;DHT22;7749;49.964;7.890;2022-12-07T20:19:07;5.30;99.90
15296;DHT22;7749;49.964;7.890;2022-12-07T20:21:36;5.30;99.90
15296;DHT22;7749;49.964;7.890;2022-12-07T20:24:05;5.30;99.90
15296;DHT22;7749;49.964;7.890;2022-12-07T20:26:34;5.30;99.90
15296;DHT22;7749;49.964;7.890;2022-12-07T20:29:09;5.30;99.90
15296;DHT22;7749;49.964;7.890;2022-12-07T20:31:46;5.30;99.90
15296;DHT22;7749;49.964;7.890;2022-12-07T20:34:14;5.30;99.90
15296;DHT22;7749;49.964;7.890;2022-12-07T20:36:42;5.30;99.90
15296;DHT22;7749;49.964;7.890;2022-12-07T20:39:09;5.30;99.90
15296;DHT22;7749;49.964;7.890;2022-12-07T20:41:38;5.20;99.90